createdAt,value
2019-02-06T00:02:19.691Z,31.70
2019-02-06T00:04:50.327Z,29.63
2019-02-06T00:07:22.511Z,29.77
2019-02-06T00:09:56.119Z,23.93
2019-02-06T00:12:26.937Z,19.93
2019-02-06T00:14:59.177Z,25.67
2019-02-06T00:17:33.944Z,23.83
2019-02-06T00:20:06.554Z,27.67
2019-02-06T00:22:40.554Z,28.73
2019-02-06T00:25:12.757Z,20.20
2019-02-06T00:27:49.832Z,23.54
2019-02-06T00:30:23.392Z,20.03
2019-02-06T00:32:55.705Z,27.27
2019-02-06T00:35:26.454Z,17.80
2019-02-06T00:37:58.679Z,22.37
2019-02-06T00:40:29.052Z,20.70
2019-02-06T00:43:08.472Z,21.00
2019-02-06T00:45:42.857Z,19.23
2019-02-06T00:48:27.702Z,19.80
2019-02-06T00:51:01.241Z,21.47
2019-02-06T00:53:36.611Z,19.03
2019-02-06T00:56:08.313Z,20.36
2019-02-06T00:58:38.727Z,17.70
2019-02-06T01:01:09.354Z,19.70
2019-02-06T01:03:40.048Z,20.00
2019-02-06T01:06:13.087Z,18.07
2019-02-06T01:08:48.753Z,19.10
2019-02-06T01:11:19.229Z,18.60
2019-02-06T01:14:14.507Z,21.33
2019-02-06T01:16:29.686Z,25.80
2019-02-06T01:19:35.919Z,24.20
2019-02-06T01:21:37.480Z,21.67
2019-02-06T01:24:07.822Z,22.63
2019-02-06T01:26:38.862Z,21.12
2019-02-06T01:29:09.616Z,21.97
2019-02-06T01:31:44.799Z,26.20
2019-02-06T01:34:18.354Z,17.97
2019-02-06T01:36:53.300Z,25.23
2019-02-06T01:39:27.271Z,21.90
2019-02-06T01:41:57.615Z,19.40
2019-02-06T01:44:28.968Z,21.27
2019-02-06T01:46:59.612Z,20.63
2019-02-06T01:49:30.204Z,18.50
2019-02-06T01:52:02.152Z,20.57
2019-02-06T01:54:35.195Z,18.37
2019-02-06T01:57:10.238Z,20.17
2019-02-06T01:59:40.648Z,16.77
2019-02-06T02:02:11.836Z,20.22
2019-02-06T02:04:42.434Z,16.93
2019-02-06T02:07:13.088Z,22.27
2019-02-06T02:09:43.831Z,18.98
2019-02-06T02:12:19.393Z,21.10
2019-02-06T02:14:53.907Z,18.43
2019-02-06T02:17:29.147Z,19.33
2019-02-06T02:20:01.042Z,20.03
2019-02-06T02:22:33.350Z,22.77
2019-02-06T02:25:06.328Z,18.20
2019-02-06T02:27:36.977Z,17.17
2019-02-06T02:30:09.709Z,17.90
2019-02-06T02:32:40.089Z,18.70
2019-02-06T02:35:13.700Z,17.00
2019-02-06T02:37:48.739Z,17.87
2019-02-06T02:40:24.466Z,18.37
2019-02-06T02:42:56.426Z,20.02
2019-02-06T02:45:31.211Z,21.73
2019-02-06T02:48:01.892Z,19.43
2019-02-06T02:50:32.284Z,19.37
2019-02-06T02:53:02.631Z,19.47
2019-02-06T02:55:34.136Z,18.37
2019-02-06T02:58:10.698Z,16.60
2019-02-06T03:01:04.598Z,18.17
2019-02-06T03:03:55.003Z,18.13
2019-02-06T03:06:28.721Z,20.02
2019-02-06T03:09:03.279Z,18.63
2019-02-06T03:11:37.220Z,20.63
2019-02-06T03:14:09.197Z,18.30
2019-02-06T03:16:45.120Z,18.33
2019-02-06T03:19:20.605Z,21.45
2019-02-06T03:21:50.546Z,17.53
2019-02-06T03:24:21.575Z,16.65
2019-02-06T03:26:52.477Z,20.03
2019-02-06T03:29:24.580Z,20.08
2019-02-06T03:31:56.401Z,16.13
2019-02-06T03:34:29.630Z,17.20
2019-02-06T03:37:02.458Z,18.20
2019-02-06T03:39:38.061Z,19.05
2019-02-06T03:42:09.952Z,16.60
2019-02-06T03:44:40.213Z,13.13
2019-02-06T03:47:10.844Z,17.50
2019-02-06T03:49:42.796Z,18.98
2019-02-06T03:52:13.214Z,17.00
2019-02-06T03:54:43.898Z,15.10
2019-02-06T03:57:15.327Z,16.97
2019-02-06T03:59:47.578Z,15.74
2019-02-06T04:02:19.163Z,17.53
2019-02-06T04:04:55.250Z,13.67
2019-02-06T04:07:29.014Z,18.47
2019-02-06T04:10:03.272Z,12.65
2019-02-06T04:12:39.193Z,15.30
2019-02-06T04:15:09.922Z,15.63
2019-02-06T04:17:40.506Z,15.20
2019-02-06T04:20:11.655Z,16.53
2019-02-06T04:22:41.962Z,13.47
2019-02-06T04:25:14.228Z,15.93
2019-02-06T04:28:01.940Z,15.77
2019-02-06T04:30:26.909Z,17.33
2019-02-06T04:33:01.515Z,16.37
2019-02-06T04:35:33.437Z,16.07
2019-02-06T04:38:05.398Z,16.47
2019-02-06T04:40:36.126Z,18.85
2019-02-06T04:43:06.917Z,16.40
2019-02-06T04:45:37.572Z,18.45
2019-02-06T04:48:09.114Z,15.50
2019-02-06T04:50:46.647Z,17.05
2019-02-06T04:53:21.666Z,15.93
2019-02-06T04:55:53.533Z,15.83
2019-02-06T04:58:24.134Z,17.17
2019-02-06T05:00:54.491Z,15.38
2019-02-06T05:03:25.782Z,20.33
2019-02-06T05:05:56.302Z,14.05
2019-02-06T05:08:29.011Z,16.73
2019-02-06T05:10:59.289Z,17.30
2019-02-06T05:13:31.537Z,17.10
2019-02-06T05:16:02.226Z,16.10
2019-02-06T05:18:32.978Z,17.73
2019-02-06T05:21:04.915Z,15.78
2019-02-06T05:23:35.264Z,17.40
2019-02-06T05:26:16.981Z,17.08
2019-02-06T05:28:55.179Z,19.60
2019-02-06T05:31:25.587Z,15.40
2019-02-06T05:34:03.531Z,16.37
2019-02-06T05:36:34.013Z,13.87
2019-02-06T05:39:07.045Z,16.70
2019-02-06T05:41:38.189Z,17.12
2019-02-06T05:44:08.486Z,15.37
2019-02-06T05:49:26.117Z,16.20
2019-02-06T05:51:56.460Z,17.73
2019-02-06T05:54:27.955Z,16.52
2019-02-06T05:56:58.492Z,18.90
2019-02-06T05:59:32.149Z,18.17
2019-02-06T06:02:05.329Z,18.00
2019-02-06T06:04:39.229Z,33.52
2019-02-06T06:07:14.722Z,16.27
2019-02-06T06:09:45.392Z,19.20
2019-02-06T06:12:17.435Z,18.43
2019-02-06T06:14:48.109Z,19.13
2019-02-06T06:17:18.451Z,17.47
2019-02-06T06:19:50.533Z,17.00
2019-02-06T06:22:40.929Z,17.80
2019-02-06T06:25:12.489Z,18.30
2019-02-06T06:27:51.676Z,17.10
2019-02-06T06:30:26.500Z,15.63
2019-02-06T06:33:02.623Z,19.98
2019-02-06T06:35:38.248Z,18.67
2019-02-06T06:38:09.271Z,19.98
2019-02-06T06:40:39.610Z,21.67
2019-02-06T06:43:10.219Z,18.60
2019-02-06T06:45:42.648Z,16.42
2019-02-06T06:48:13.985Z,18.43
2019-02-06T06:50:46.890Z,18.20
2019-02-06T06:53:20.877Z,21.87
2019-02-06T06:55:53.867Z,18.63
2019-02-06T06:58:25.099Z,21.35
2019-02-06T07:00:56.969Z,16.37
2019-02-06T07:03:29.590Z,19.02
2019-02-06T07:05:59.895Z,19.27
2019-02-06T07:08:35.531Z,18.45
2019-02-06T07:11:08.553Z,19.27
2019-02-06T07:13:40.223Z,17.30
2019-02-06T07:16:10.815Z,16.03
2019-02-06T07:18:42.636Z,18.32
2019-02-06T07:21:12.912Z,17.97
2019-02-06T07:23:46.762Z,18.32
2019-02-06T07:26:24.987Z,15.03
2019-02-06T07:28:56.197Z,19.98
2019-02-06T07:31:31.800Z,17.00
2019-02-06T07:34:03.371Z,15.54
2019-02-06T07:36:33.679Z,14.83
2019-02-06T07:39:07.665Z,16.93
2019-02-06T07:41:40.377Z,18.63
2019-02-06T07:44:13.368Z,16.03
2019-02-06T07:46:45.340Z,17.90
2019-02-06T07:49:18.584Z,15.83
2019-02-06T07:51:52.792Z,19.57
2019-02-06T07:54:30.990Z,13.62
2019-02-06T07:57:07.463Z,19.40
2019-02-06T07:59:33.570Z,17.40
2019-02-06T08:02:03.992Z,16.40
2019-02-06T08:04:34.743Z,15.10
2019-02-06T08:07:05.070Z,14.53
2019-02-06T08:09:40.715Z,15.00
2019-02-06T08:12:11.149Z,16.40
2019-02-06T08:14:49.695Z,17.17
2019-02-06T08:17:35.767Z,17.12
2019-02-06T08:20:13.588Z,15.07
2019-02-06T08:22:45.828Z,17.47
2019-02-06T08:25:28.619Z,16.13
2019-02-06T08:28:00.860Z,16.07
2019-02-06T08:30:36.347Z,17.07
2019-02-06T08:33:06.861Z,15.60
2019-02-06T08:35:38.393Z,18.12
2019-02-06T08:38:09.929Z,17.45
2019-02-06T08:40:46.178Z,17.97
2019-02-06T08:43:13.930Z,16.17
2019-02-06T08:45:47.955Z,19.12
2019-02-06T08:48:30.261Z,18.07
2019-02-06T08:51:00.276Z,21.68
2019-02-06T08:53:30.861Z,16.03
2019-02-06T08:56:01.503Z,15.85
2019-02-06T08:58:32.192Z,15.97
2019-02-06T09:01:02.963Z,16.62
2019-02-06T09:03:39.970Z,16.00
2019-02-06T09:06:17.302Z,13.85
2019-02-06T09:08:59.187Z,15.33
2019-02-06T09:11:32.074Z,15.83
2019-02-06T09:14:12.259Z,14.80
2019-02-06T09:16:43.108Z,17.80
2019-02-06T09:19:13.487Z,14.17
2019-02-06T09:21:43.806Z,15.67
2019-02-06T09:24:14.077Z,14.50
2019-02-06T09:26:46.154Z,18.32
2019-02-06T09:29:16.786Z,16.63
2019-02-06T09:31:51.149Z,16.65
2019-02-06T09:34:23.357Z,15.17
2019-02-06T09:36:59.173Z,17.92
2019-02-06T09:39:29.634Z,13.23
2019-02-06T09:41:59.934Z,15.10
2019-02-06T09:44:31.270Z,19.03
2019-02-06T09:47:07.950Z,17.77
2019-02-06T09:49:38.337Z,15.80
2019-02-06T09:52:08.663Z,17.20
2019-02-06T09:54:39.001Z,18.57
2019-02-06T09:57:09.364Z,13.60
2019-02-06T09:59:49.595Z,15.53
2019-02-06T10:02:26.755Z,17.12
2019-02-06T10:05:05.757Z,15.40
2019-02-06T10:08:15.189Z,15.13
2019-02-06T10:10:19.650Z,19.48
2019-02-06T10:12:57.169Z,15.50
2019-02-06T10:15:38.149Z,14.58
2019-02-06T10:18:13.614Z,17.90
2019-02-06T10:20:48.644Z,15.53
2019-02-06T10:23:20.873Z,17.62
2019-02-06T10:25:53.679Z,17.40
2019-02-06T10:28:24.227Z,16.83
2019-02-06T10:30:57.143Z,21.43
2019-02-06T10:33:29.584Z,22.73
2019-02-06T10:36:03.325Z,18.33
2019-02-06T10:38:51.162Z,21.75
2019-02-06T10:41:24.002Z,24.57
2019-02-06T10:43:54.560Z,26.40
2019-02-06T10:46:26.493Z,22.10
2019-02-06T10:48:56.892Z,23.07
2019-02-06T10:51:27.551Z,23.23
2019-02-06T10:53:58.336Z,20.50
2019-02-06T10:56:34.686Z,24.03
2019-02-06T10:59:11.470Z,25.50
2019-02-06T11:01:46.521Z,19.90
2019-02-06T11:04:17.949Z,21.03
2019-02-06T11:06:51.322Z,26.60
2019-02-06T11:09:21.569Z,20.13
2019-02-06T11:11:51.869Z,22.50
2019-02-06T11:14:22.574Z,23.70
2019-02-06T11:16:52.932Z,24.17
2019-02-06T11:19:26.621Z,22.10
2019-02-06T11:21:59.052Z,19.97
2019-02-06T11:24:33.677Z,24.30
2019-02-06T11:27:07.363Z,20.67
2019-02-06T11:29:38.758Z,22.03
2019-02-06T11:32:09.103Z,26.73
2019-02-06T11:34:39.724Z,19.10
2019-02-06T11:37:10.088Z,19.83
2019-02-06T11:39:40.686Z,22.80
2019-02-06T11:42:15.651Z,20.63
2019-02-06T11:44:58.507Z,19.50
2019-02-06T11:47:37.187Z,24.23
2019-02-06T11:50:12.357Z,22.20
2019-02-06T11:52:42.960Z,20.63
2019-02-06T11:55:16.179Z,21.60
2019-02-06T11:57:46.809Z,24.73
2019-02-06T12:00:43.800Z,21.00
2019-02-06T12:03:14.495Z,17.17
2019-02-06T12:05:46.858Z,20.43
2019-02-06T12:08:23.360Z,20.03
2019-02-06T12:10:51.715Z,20.27
2019-02-06T12:13:24.967Z,18.90
2019-02-06T12:16:07.511Z,21.48
2019-02-06T12:18:33.172Z,21.43
2019-02-06T12:21:05.569Z,22.22
2019-02-06T12:23:36.249Z,17.30
2019-02-06T12:26:07.817Z,18.82
2019-02-06T12:28:42.087Z,20.77
2019-02-06T12:31:11.301Z,21.00
2019-02-06T12:33:41.688Z,20.77
2019-02-06T12:36:15.259Z,20.77
2019-02-06T12:38:53.153Z,22.43
2019-02-06T12:41:16.592Z,23.07
2019-02-06T12:43:57.732Z,19.10
2019-02-06T12:46:23.715Z,23.37
2019-02-06T12:48:57.719Z,20.80
2019-02-06T12:51:29.770Z,16.93
2019-02-06T12:54:00.037Z,18.80
2019-02-06T12:56:31.024Z,26.25
2019-02-06T12:59:02.425Z,20.43
2019-02-06T13:01:35.297Z,20.03
2019-02-06T13:04:08.911Z,16.10
2019-02-06T13:06:43.817Z,16.97
2019-02-06T13:09:19.408Z,20.60
2019-02-06T13:11:56.632Z,17.73
2019-02-06T13:14:25.550Z,16.03
2019-02-06T13:16:58.032Z,18.73
2019-02-06T13:19:28.518Z,18.73
2019-02-06T13:21:59.733Z,20.30
2019-02-06T13:24:30.350Z,21.10
2019-02-06T13:27:04.401Z,19.65
2019-02-06T13:29:41.165Z,20.50
2019-02-06T13:32:16.731Z,25.43
2019-02-06T13:35:11.079Z,18.90
2019-02-06T13:37:47.491Z,18.43
2019-02-06T13:40:20.184Z,19.50
2019-02-06T13:42:58.994Z,19.17
2019-02-06T13:45:35.708Z,17.83
2019-02-06T13:48:06.763Z,16.30
2019-02-06T13:50:37.641Z,15.43
2019-02-06T13:53:14.360Z,17.17
2019-02-06T13:55:47.803Z,22.57
2019-02-06T13:58:22.591Z,19.37
2019-02-06T14:01:00.285Z,22.23
2019-02-06T14:03:29.400Z,23.70
2019-02-06T14:06:00.051Z,19.03
2019-02-06T14:08:32.494Z,16.70
2019-02-06T14:11:03.450Z,17.60
2019-02-06T14:13:36.665Z,18.20
2019-02-06T14:16:07.981Z,17.40
2019-02-06T14:18:48.043Z,16.02
2019-02-06T14:21:22.424Z,16.63
2019-02-06T14:24:07.502Z,19.52
2019-02-06T14:27:02.166Z,16.23
2019-02-06T14:30:02.858Z,17.53
2019-02-06T14:33:08.591Z,18.57
2019-02-06T14:35:52.859Z,17.10
2019-02-06T14:38:56.516Z,15.40
2019-02-06T14:41:35.998Z,17.80
2019-02-06T14:44:38.673Z,14.05
2019-02-06T14:47:32.198Z,15.78
2019-02-06T14:50:33.425Z,17.77
2019-02-06T14:53:46.999Z,20.87
2019-02-06T14:57:16.409Z,15.35
2019-02-06T15:00:30.104Z,17.00
2019-02-06T15:03:51.885Z,17.07
2019-02-06T15:07:04.605Z,23.60
2019-02-06T15:10:07.455Z,19.13
2019-02-06T15:13:30.634Z,17.37
2019-02-06T15:16:22.330Z,13.67
2019-02-06T15:19:48.070Z,21.15
2019-02-06T15:23:05.537Z,14.83
2019-02-06T15:26:08.525Z,17.37
2019-02-06T15:29:01.941Z,18.77
2019-02-06T15:35:15.266Z,17.67
2019-02-06T15:38:16.378Z,14.17
2019-02-06T15:41:31.639Z,17.43
2019-02-06T15:44:33.176Z,19.27
2019-02-06T15:47:33.140Z,17.48
2019-02-06T15:50:32.230Z,16.42
2019-02-06T15:53:54.357Z,18.20
2019-02-06T15:57:11.675Z,17.48
2019-02-06T16:00:13.055Z,18.03
2019-02-06T16:03:16.930Z,15.23
2019-02-06T16:06:23.449Z,15.23
2019-02-06T16:09:30.106Z,15.10
2019-02-06T16:12:44.925Z,14.03
2019-02-06T16:15:43.971Z,13.23
2019-02-06T16:19:11.028Z,13.00
2019-02-06T16:22:19.340Z,14.05
2019-02-06T16:25:20.558Z,13.48
2019-02-06T16:28:25.732Z,12.37
2019-02-06T16:31:31.674Z,12.90
2019-02-06T16:34:24.823Z,13.62
2019-02-06T16:37:09.429Z,12.70
2019-02-06T16:40:02.482Z,13.47
2019-02-06T16:43:08.484Z,15.17
2019-02-06T16:46:27.242Z,13.47
2019-02-06T16:49:18.568Z,15.67
2019-02-06T16:52:19.690Z,11.03
2019-02-06T16:55:25.060Z,15.30
2019-02-06T16:58:35.076Z,12.73
2019-02-06T17:01:47.034Z,14.40
2019-02-06T17:05:06.303Z,13.98
2019-02-06T17:08:17.744Z,15.10
2019-02-06T17:11:07.538Z,14.80
2019-02-06T17:14:21.496Z,12.87
2019-02-06T17:16:59.330Z,11.43
2019-02-06T17:19:42.885Z,16.47
2019-02-06T17:22:44.072Z,16.87
2019-02-06T17:26:00.720Z,13.67
2019-02-06T17:29:10.664Z,15.60
2019-02-06T17:32:35.974Z,15.30
2019-02-06T17:35:39.183Z,17.63
2019-02-06T17:38:37.061Z,17.53
2019-02-06T17:41:41.871Z,13.27
2019-02-06T17:44:48.632Z,22.40
2019-02-06T17:48:09.018Z,16.83
2019-02-06T17:51:19.653Z,16.80
2019-02-06T17:54:23.813Z,21.33
2019-02-06T17:56:55.384Z,19.40
2019-02-06T17:59:25.914Z,19.13
2019-02-06T18:01:56.844Z,17.03
2019-02-06T18:04:39.927Z,14.10
2019-02-06T18:07:14.543Z,16.57
2019-02-06T18:09:47.704Z,21.63
2019-02-06T18:12:26.176Z,15.53
2019-02-06T18:14:51.399Z,14.50
2019-02-06T18:17:21.743Z,15.58
2019-02-06T18:19:52.199Z,13.90
2019-02-06T18:22:24.516Z,14.93
2019-02-06T18:24:58.887Z,17.97
2019-02-06T18:27:40.085Z,16.63
2019-02-06T18:30:14.939Z,15.03
2019-02-06T18:32:45.549Z,13.80
2019-02-06T18:35:16.491Z,16.07
2019-02-06T18:37:50.019Z,19.20
2019-02-06T18:40:26.118Z,19.20
2019-02-06T18:43:04.044Z,16.60
2019-02-06T18:45:38.549Z,17.57
2019-02-06T18:48:13.752Z,15.73
2019-02-06T18:50:42.498Z,15.10
2019-02-06T18:53:13.142Z,14.80
2019-02-06T18:55:43.798Z,14.27
2019-02-06T18:58:14.167Z,14.37
2019-02-06T19:00:50.529Z,17.93
2019-02-06T19:03:26.698Z,20.73
2019-02-06T19:06:01.577Z,18.70
2019-02-06T19:08:32.311Z,19.33
2019-02-06T19:11:04.486Z,19.53
2019-02-06T19:13:35.142Z,18.98
2019-02-06T19:16:10.123Z,17.98
2019-02-06T19:18:44.457Z,17.30
2019-02-06T19:21:29.509Z,19.47
2019-02-06T19:24:03.584Z,19.50
2019-02-06T19:26:34.244Z,19.83
2019-02-06T19:29:08.156Z,17.17
2019-02-06T19:31:40.455Z,19.70
2019-02-06T19:34:11.905Z,18.07
2019-02-06T19:36:42.337Z,17.43
2019-02-06T19:39:14.081Z,17.50
2019-02-06T19:41:47.267Z,16.27
2019-02-06T19:44:23.143Z,21.07
2019-02-06T19:46:57.714Z,22.62
2019-02-06T19:49:29.981Z,19.13
2019-02-06T19:52:01.970Z,19.00
2019-02-06T19:54:32.512Z,19.20
2019-02-06T19:57:09.455Z,22.70
2019-02-06T19:59:42.550Z,19.87
2019-02-06T20:02:14.827Z,20.62
2019-02-06T20:04:47.386Z,18.43
2019-02-06T20:07:17.697Z,21.80
2019-02-06T20:09:49.970Z,23.00
2019-02-06T20:12:20.477Z,22.03
2019-02-06T20:14:50.881Z,20.97
2019-02-06T20:17:21.665Z,19.92
2019-02-06T20:19:52.159Z,20.53
2019-02-06T20:25:16.893Z,21.50
2019-02-06T20:27:49.589Z,25.23
2019-02-06T20:30:36.843Z,21.17
2019-02-06T20:33:10.159Z,20.70
2019-02-06T20:35:45.184Z,22.90
2019-02-06T20:38:20.015Z,23.56
2019-02-06T20:40:50.343Z,24.70
2019-02-06T20:43:22.375Z,22.47
2019-02-06T20:45:56.714Z,19.83
2019-02-06T20:48:31.907Z,24.10
2019-02-06T20:51:06.871Z,25.10
2019-02-06T20:53:37.761Z,22.27
2019-02-06T20:56:08.369Z,22.57
2019-02-06T20:58:42.801Z,23.97
2019-02-06T21:01:14.577Z,23.70
2019-02-06T21:03:57.324Z,27.84
2019-02-06T21:06:26.087Z,23.77
2019-02-06T21:08:58.081Z,22.77
2019-02-06T21:11:29.108Z,26.50
2019-02-06T21:13:59.626Z,28.37
2019-02-06T21:16:37.163Z,27.90
2019-02-06T21:19:12.168Z,33.73
2019-02-06T21:21:49.309Z,29.80
2019-02-06T21:24:29.449Z,29.40
2019-02-06T21:26:55.011Z,32.60
2019-02-06T21:29:26.033Z,36.60
2019-02-06T21:31:56.835Z,33.10
2019-02-06T21:34:50.042Z,30.37
2019-02-06T21:37:14.344Z,28.50
2019-02-06T21:39:46.636Z,29.23
2019-02-06T21:42:18.928Z,26.42
2019-02-06T21:44:49.260Z,29.10
2019-02-06T21:47:36.252Z,25.70
2019-02-06T21:50:01.835Z,25.07
2019-02-06T21:52:37.991Z,30.13
2019-02-06T21:55:17.252Z,29.90
2019-02-06T21:57:49.461Z,35.03
2019-02-06T22:00:24.929Z,27.30
2019-02-06T22:02:55.493Z,26.48
2019-02-06T22:05:27.693Z,25.57
2019-02-06T22:08:02.655Z,30.10
2019-02-06T22:10:35.048Z,28.32
2019-02-06T22:13:06.366Z,27.40
2019-02-06T22:15:37.046Z,31.20
2019-02-06T22:18:07.830Z,29.70
2019-02-06T22:20:38.375Z,29.37
2019-02-06T22:23:14.188Z,26.93
2019-02-06T22:25:46.416Z,27.37
2019-02-06T22:28:18.805Z,34.20
2019-02-06T22:30:49.785Z,30.33
2019-02-06T22:33:46.788Z,34.30
2019-02-06T22:36:14.631Z,36.33
2019-02-06T22:38:43.462Z,34.57
2019-02-06T22:41:07.565Z,32.45
2019-02-06T22:43:38.252Z,32.55
2019-02-06T22:46:10.568Z,38.58
2019-02-06T22:48:41.259Z,40.70
2019-02-06T22:51:16.546Z,44.27
2019-02-06T22:53:47.231Z,42.10
2019-02-06T22:56:18.011Z,41.73
2019-02-06T22:58:48.621Z,43.20
2019-02-06T23:01:37.483Z,46.75
2019-02-06T23:04:08.087Z,47.80
2019-02-06T23:06:38.780Z,48.75
2019-02-06T23:09:09.609Z,60.30
2019-02-06T23:11:40.265Z,51.70
2019-02-06T23:14:17.196Z,56.37
2019-02-06T23:16:43.347Z,51.27
2019-02-06T23:19:26.178Z,53.67
2019-02-06T23:22:11.866Z,53.80
2019-02-06T23:24:50.005Z,55.23
2019-02-06T23:27:40.397Z,55.43
2019-02-06T23:30:25.684Z,57.57
2019-02-06T23:33:02.055Z,57.80
2019-02-06T23:35:57.911Z,57.40
2019-02-06T23:39:09.652Z,60.27
2019-02-06T23:40:51.481Z,55.80
2019-02-06T23:43:21.988Z,64.23
2019-02-06T23:45:53.829Z,63.87
2019-02-06T23:48:27.698Z,63.17
2019-02-06T23:51:07.458Z,56.43
2019-02-06T23:53:41.359Z,58.13
2019-02-06T23:56:14.185Z,57.28
2019-02-06T23:58:44.588Z,51.03
